Lingle, Wyoming
Current Conditions -  °F | °C
As of 8:53 AM on Wednesday 28 Jan 2015 (Local Time) from KTOR Reporting Station
Clear Clear  
Wind Chill: 50°   Ceiling: Unl
Heat Index: 50°   Visibility: 10mi
Dew Point: 32°   Wind: 15mph
Humidity: 50%   Direction: 280°W
Pressure: 29.97"   Gusts: 23mph
Location:  42.14°N, 104.35°W
Report Text: KTOR 281553Z AUTO 28013G20KT 10SM CLR 10/00 A2997 RMK AO2 PK WND 27026/1511 SLP141 T01000000
Loading
Personal Weather Stations






























Interactive Weather Map New forecast layout! Learn more

10-Day Weather Forecast

Advertisements
Track Severe Weather on mobile